createdAt,value
2018-12-06T00:00:11.541Z,4.00
2018-12-06T00:01:11.564Z,4.00
2018-12-06T00:02:11.527Z,4.00
2018-12-06T00:03:11.507Z,4.00
2018-12-06T00:04:11.505Z,4.00
2018-12-06T00:05:11.488Z,4.00
2018-12-06T00:06:11.474Z,4.00
2018-12-06T00:07:11.478Z,4.00
2018-12-06T00:08:11.457Z,4.00
2018-12-06T00:09:11.445Z,4.00
2018-12-06T00:10:21.990Z,4.00
2018-12-06T00:11:11.424Z,4.00
2018-12-06T00:12:11.413Z,4.00
2018-12-06T00:13:11.495Z,4.00
2018-12-06T00:14:11.393Z,4.00
2018-12-06T00:15:11.387Z,4.00
2018-12-06T00:16:11.369Z,4.00
2018-12-06T00:17:11.359Z,4.00
2018-12-06T00:18:11.356Z,4.00
2018-12-06T00:19:11.379Z,4.00
2018-12-06T00:20:11.326Z,4.00
2018-12-06T00:21:11.319Z,4.00
2018-12-06T00:22:11.310Z,4.00
2018-12-06T00:23:11.302Z,4.00
2018-12-06T00:24:11.288Z,4.00
2018-12-06T00:25:11.488Z,4.00
2018-12-06T00:26:11.265Z,4.00
2018-12-06T00:27:11.259Z,4.00
2018-12-06T00:28:11.248Z,4.00
2018-12-06T00:29:11.243Z,4.00
2018-12-06T00:30:11.225Z,4.00
2018-12-06T00:31:11.233Z,4.00
2018-12-06T00:32:11.207Z,4.00
2018-12-06T00:33:11.190Z,4.00
2018-12-06T00:34:11.183Z,4.00
2018-12-06T00:35:11.177Z,4.00
2018-12-06T00:36:11.158Z,4.00
2018-12-06T00:37:11.194Z,4.00
2018-12-06T00:38:11.143Z,4.00
2018-12-06T00:39:11.130Z,4.00
2018-12-06T00:40:11.116Z,4.00
2018-12-06T00:41:21.220Z,4.00
2018-12-06T00:42:11.103Z,4.00
2018-12-06T00:43:11.107Z,4.00
2018-12-06T00:44:11.077Z,4.00
2018-12-06T00:45:11.064Z,4.00
2018-12-06T00:46:11.059Z,4.00
2018-12-06T00:47:11.046Z,4.00
2018-12-06T00:48:11.037Z,4.00
2018-12-06T00:49:11.818Z,4.00
2018-12-06T00:50:11.011Z,4.00
2018-12-06T00:51:11.006Z,4.00
2018-12-06T00:52:10.991Z,4.00
2018-12-06T00:53:10.989Z,4.00
2018-12-06T00:54:10.981Z,4.00
2018-12-06T00:55:10.995Z,4.00
2018-12-06T00:56:10.956Z,4.00
2018-12-06T00:57:10.940Z,4.00
2018-12-06T00:58:10.935Z,4.00
2018-12-06T00:59:10.928Z,4.00
2018-12-06T01:00:10.919Z,4.00
2018-12-06T01:01:10.935Z,4.00
2018-12-06T01:02:10.888Z,4.00
2018-12-06T01:03:18.470Z,4.00
2018-12-06T01:04:10.869Z,4.00
2018-12-06T01:05:10.854Z,4.00
2018-12-06T01:06:10.851Z,4.00
2018-12-06T01:07:18.535Z,4.00
2018-12-06T01:08:10.826Z,4.00
2018-12-06T01:09:10.815Z,4.00
2018-12-06T01:10:10.808Z,4.00
2018-12-06T01:11:10.793Z,4.00
2018-12-06T01:12:10.786Z,4.00
2018-12-06T01:13:10.800Z,4.00
2018-12-06T01:14:10.767Z,4.00
2018-12-06T01:15:10.782Z,4.00
2018-12-06T01:16:10.739Z,4.00
2018-12-06T01:17:10.729Z,4.00
2018-12-06T01:18:10.718Z,4.00
2018-12-06T01:19:11.039Z,4.00
2018-12-06T01:20:10.708Z,4.00
2018-12-06T01:21:10.693Z,4.00
2018-12-06T01:22:10.683Z,4.00
2018-12-06T01:23:10.667Z,4.00
2018-12-06T01:24:10.662Z,4.00
2018-12-06T01:25:10.677Z,4.00
2018-12-06T01:26:10.642Z,4.00
2018-12-06T01:27:10.625Z,4.00
2018-12-06T01:28:10.613Z,4.00
2018-12-06T01:29:10.607Z,4.00
2018-12-06T01:30:10.597Z,4.00
2018-12-06T01:31:11.350Z,4.00
2018-12-06T01:32:10.576Z,4.00
2018-12-06T01:33:10.561Z,4.00
2018-12-06T01:34:10.555Z,4.00
2018-12-06T01:35:10.538Z,4.00
2018-12-06T01:36:10.534Z,4.00
2018-12-06T01:37:10.557Z,4.00
2018-12-06T01:38:22.105Z,4.00
2018-12-06T01:39:10.504Z,4.00
2018-12-06T01:40:10.490Z,4.00
2018-12-06T01:41:10.481Z,4.00
2018-12-06T01:42:10.471Z,4.00
2018-12-06T01:43:10.507Z,4.00
2018-12-06T01:44:10.449Z,4.00
2018-12-06T01:45:10.434Z,4.00
2018-12-06T01:46:10.425Z,4.00
2018-12-06T01:47:10.423Z,4.00
2018-12-06T01:48:10.409Z,4.00
2018-12-06T01:49:11.965Z,4.00
2018-12-06T01:50:10.389Z,4.00
2018-12-06T01:51:10.371Z,4.00
2018-12-06T01:52:10.372Z,4.00
2018-12-06T01:53:10.351Z,4.00
2018-12-06T01:54:10.339Z,4.00
2018-12-06T01:55:10.531Z,4.00
2018-12-06T01:56:10.324Z,4.00
2018-12-06T01:57:10.312Z,4.00
2018-12-06T01:58:10.306Z,4.00
2018-12-06T01:59:10.288Z,4.00
2018-12-06T02:00:10.281Z,4.00
2018-12-06T02:01:10.301Z,4.00
2018-12-06T02:02:10.263Z,4.00
2018-12-06T02:03:10.245Z,4.00
2018-12-06T02:04:10.239Z,4.00
2018-12-06T02:05:10.235Z,4.00
2018-12-06T02:06:10.215Z,4.00
2018-12-06T02:07:10.221Z,4.00
2018-12-06T02:08:10.195Z,4.00
2018-12-06T02:09:21.572Z,4.00
2018-12-06T02:10:10.171Z,4.00
2018-12-06T02:11:10.164Z,4.00
2018-12-06T02:12:10.154Z,4.00
2018-12-06T02:13:10.179Z,4.00
2018-12-06T02:14:10.137Z,4.00
2018-12-06T02:15:10.122Z,4.00
2018-12-06T02:16:10.113Z,4.00
2018-12-06T02:17:10.102Z,4.00
2018-12-06T02:18:10.089Z,4.00
2018-12-06T02:19:10.117Z,4.00
2018-12-06T02:20:10.069Z,4.00
2018-12-06T02:21:10.055Z,4.00
2018-12-06T02:22:10.048Z,4.00
2018-12-06T02:23:10.034Z,4.00
2018-12-06T02:24:10.026Z,4.00
2018-12-06T02:25:10.057Z,4.00
2018-12-06T02:26:10.005Z,4.00
2018-12-06T02:27:10.002Z,4.00
2018-12-06T02:28:09.993Z,4.00
2018-12-06T02:29:09.976Z,4.00
2018-12-06T02:30:09.965Z,4.00
2018-12-06T02:31:10.116Z,4.00
2018-12-06T02:32:09.940Z,4.00
2018-12-06T02:33:09.937Z,4.00
2018-12-06T02:34:09.929Z,4.00
2018-12-06T02:35:09.911Z,4.00
2018-12-06T02:36:09.907Z,4.00
2018-12-06T02:37:09.929Z,4.00
2018-12-06T02:38:09.880Z,4.00
2018-12-06T02:39:09.870Z,4.00
2018-12-06T02:40:19.846Z,4.00
2018-12-06T02:41:09.854Z,4.00
2018-12-06T02:42:09.843Z,4.00
2018-12-06T02:43:09.863Z,4.00
2018-12-06T02:44:09.818Z,4.00
2018-12-06T02:45:09.808Z,4.00
2018-12-06T02:46:09.797Z,4.00
2018-12-06T02:47:09.792Z,4.00
2018-12-06T02:48:09.772Z,4.00
2018-12-06T02:49:09.781Z,4.00
2018-12-06T02:50:09.769Z,4.00
2018-12-06T02:51:09.742Z,4.00
2018-12-06T02:52:09.740Z,4.00
2018-12-06T02:53:09.727Z,4.00
2018-12-06T02:54:09.710Z,4.00
2018-12-06T02:55:10.496Z,4.00
2018-12-06T02:56:09.692Z,4.00
2018-12-06T02:57:09.680Z,4.00
2018-12-06T02:58:09.676Z,4.00
2018-12-06T02:59:09.663Z,4.00
2018-12-06T03:00:09.655Z,4.00
2018-12-06T03:01:09.678Z,4.00
2018-12-06T03:02:09.634Z,4.00
2018-12-06T03:03:09.617Z,4.00
2018-12-06T03:04:09.612Z,4.00
2018-12-06T03:05:09.599Z,4.00
2018-12-06T03:06:09.591Z,4.00
2018-12-06T03:07:09.609Z,4.00
2018-12-06T03:08:09.577Z,4.00
2018-12-06T03:09:09.561Z,4.00
2018-12-06T03:10:09.549Z,4.00
2018-12-06T03:11:19.612Z,4.00
2018-12-06T03:12:09.532Z,4.00
2018-12-06T03:13:09.584Z,4.00
2018-12-06T03:14:09.509Z,4.00
2018-12-06T03:15:09.493Z,4.00
2018-12-06T03:16:09.489Z,4.00
2018-12-06T03:17:09.478Z,4.00
2018-12-06T03:18:09.469Z,4.00
2018-12-06T03:19:09.499Z,4.00
2018-12-06T03:20:09.443Z,4.00
2018-12-06T03:21:09.434Z,4.00
2018-12-06T03:22:09.425Z,4.00
2018-12-06T03:23:09.410Z,4.00
2018-12-06T03:24:09.404Z,4.00
2018-12-06T03:25:09.434Z,4.00
2018-12-06T03:26:09.383Z,4.00
2018-12-06T03:27:09.370Z,4.00
2018-12-06T03:28:09.365Z,4.00
2018-12-06T03:29:09.352Z,4.00
2018-12-06T03:30:09.349Z,4.00
2018-12-06T03:31:09.369Z,4.00
2018-12-06T03:32:09.317Z,4.00
2018-12-06T03:33:09.310Z,4.00
2018-12-06T03:34:09.296Z,4.00
2018-12-06T03:35:09.283Z,4.00
2018-12-06T03:36:09.281Z,4.00
2018-12-06T03:37:09.589Z,4.00
2018-12-06T03:38:09.252Z,4.00
2018-12-06T03:39:09.247Z,4.00
2018-12-06T03:40:09.231Z,4.00
2018-12-06T03:41:09.222Z,4.00
2018-12-06T03:42:20.093Z,4.00
2018-12-06T03:43:09.200Z,4.00
2018-12-06T03:44:09.197Z,4.00
2018-12-06T03:45:09.182Z,4.00
2018-12-06T03:46:09.169Z,4.00
2018-12-06T03:47:09.167Z,4.00
2018-12-06T03:48:09.186Z,4.00
2018-12-06T03:49:09.140Z,4.00
2018-12-06T03:50:09.132Z,4.00
2018-12-06T03:51:09.119Z,4.00
2018-12-06T03:52:09.108Z,4.00
2018-12-06T03:53:09.100Z,4.00
2018-12-06T03:54:09.123Z,4.00
2018-12-06T03:55:09.084Z,4.00
2018-12-06T03:56:09.066Z,4.00
2018-12-06T03:57:09.056Z,4.00
2018-12-06T03:58:09.048Z,4.00
2018-12-06T03:59:09.035Z,4.00
2018-12-06T04:00:09.061Z,4.00
2018-12-06T04:01:09.023Z,4.00
2018-12-06T04:02:09.008Z,4.00
2018-12-06T04:03:08.994Z,4.00
2018-12-06T04:04:08.982Z,4.00
2018-12-06T04:05:08.970Z,4.00
2018-12-06T04:06:09.001Z,4.00
2018-12-06T04:07:08.962Z,4.00
2018-12-06T04:08:08.944Z,4.00
2018-12-06T04:09:08.934Z,4.00
2018-12-06T04:10:08.924Z,4.00
2018-12-06T04:11:08.914Z,4.00
2018-12-06T04:12:08.918Z,4.00
2018-12-06T04:13:19.460Z,4.00
2018-12-06T04:14:08.883Z,4.00
2018-12-06T04:15:08.872Z,4.00
2018-12-06T04:16:08.863Z,4.00
2018-12-06T04:17:08.844Z,4.00
2018-12-06T04:18:08.878Z,4.00
2018-12-06T04:19:08.825Z,4.00
2018-12-06T04:20:08.813Z,4.00
2018-12-06T04:21:08.813Z,4.00
2018-12-06T04:22:08.800Z,4.00
2018-12-06T04:23:08.789Z,4.00
2018-12-06T04:24:09.085Z,4.00
2018-12-06T04:25:08.761Z,4.00
2018-12-06T04:26:08.829Z,4.00
2018-12-06T04:27:08.747Z,4.00
2018-12-06T04:28:08.731Z,4.00
2018-12-06T04:29:08.720Z,4.00
2018-12-06T04:30:09.109Z,4.00
2018-12-06T04:31:08.704Z,4.00
2018-12-06T04:32:08.697Z,4.00
2018-12-06T04:33:08.689Z,4.00
2018-12-06T04:34:08.670Z,4.00
2018-12-06T04:35:08.665Z,4.00
2018-12-06T04:36:09.606Z,4.00
2018-12-06T04:37:08.639Z,4.00
2018-12-06T04:38:08.628Z,4.00
2018-12-06T04:39:08.632Z,4.00
2018-12-06T04:40:08.605Z,4.00
2018-12-06T04:41:08.595Z,4.00
2018-12-06T04:42:08.612Z,4.00
2018-12-06T04:43:08.575Z,4.00
2018-12-06T04:44:18.772Z,4.00
2018-12-06T04:45:08.557Z,4.00
2018-12-06T04:46:08.550Z,4.00
2018-12-06T04:47:08.535Z,4.00
2018-12-06T04:48:21.980Z,4.00
2018-12-06T04:49:15.491Z,4.00
2018-12-06T04:50:08.503Z,4.00
2018-12-06T04:51:08.492Z,4.00
2018-12-06T04:52:08.485Z,4.00
2018-12-06T04:53:08.479Z,4.00
2018-12-06T04:54:08.484Z,4.00
2018-12-06T04:55:08.457Z,4.00
2018-12-06T04:56:15.737Z,4.00
2018-12-06T04:57:08.435Z,4.00
2018-12-06T04:58:08.423Z,4.00
2018-12-06T04:59:08.419Z,4.00
2018-12-06T05:00:09.192Z,4.00
2018-12-06T05:01:08.400Z,4.00
2018-12-06T05:02:08.384Z,4.00
2018-12-06T05:03:08.373Z,4.00
2018-12-06T05:04:08.364Z,4.00
2018-12-06T05:05:08.348Z,4.00
2018-12-06T05:06:08.372Z,4.00
2018-12-06T05:07:08.331Z,4.00
2018-12-06T05:08:08.315Z,4.00
2018-12-06T05:09:08.306Z,4.00
2018-12-06T05:10:08.301Z,4.00
2018-12-06T05:11:08.291Z,4.00
2018-12-06T05:12:08.314Z,4.00
2018-12-06T05:13:08.265Z,4.00
2018-12-06T05:14:08.252Z,4.00
2018-12-06T05:15:08.253Z,4.00
2018-12-06T05:16:08.239Z,4.00
2018-12-06T05:17:08.237Z,4.00
2018-12-06T05:18:08.249Z,4.00
2018-12-06T05:19:08.200Z,4.00
2018-12-06T05:20:08.192Z,4.00
2018-12-06T05:21:08.195Z,4.00
2018-12-06T05:22:08.173Z,4.00
2018-12-06T05:23:08.165Z,4.00
2018-12-06T05:24:08.674Z,4.00
2018-12-06T05:25:08.137Z,4.00
2018-12-06T05:26:08.128Z,4.00
2018-12-06T05:27:19.117Z,4.00
2018-12-06T05:28:08.108Z,4.00
2018-12-06T05:29:08.097Z,4.00
2018-12-06T05:30:08.534Z,4.00
2018-12-06T05:31:08.083Z,4.00
2018-12-06T05:32:08.063Z,4.00
2018-12-06T05:33:08.055Z,4.00
2018-12-06T05:34:08.050Z,4.00
2018-12-06T05:35:08.041Z,4.00
2018-12-06T05:36:08.062Z,4.00
2018-12-06T05:37:08.009Z,4.00
2018-12-06T05:38:08.007Z,4.00
2018-12-06T05:39:07.994Z,4.00
2018-12-06T05:40:07.989Z,4.00
2018-12-06T05:41:07.970Z,4.00
2018-12-06T05:42:08.692Z,4.00
2018-12-06T05:43:07.952Z,4.00
2018-12-06T05:44:07.940Z,4.00
2018-12-06T05:45:07.934Z,4.00
2018-12-06T05:46:07.925Z,4.00
2018-12-06T05:47:07.905Z,4.00
2018-12-06T05:48:07.911Z,4.00
2018-12-06T05:49:07.890Z,4.00
2018-12-06T05:50:07.877Z,4.00
2018-12-06T05:51:07.871Z,4.00
2018-12-06T05:52:07.866Z,4.00
2018-12-06T05:53:07.846Z,4.00
2018-12-06T05:54:07.872Z,8.00
2018-12-06T05:55:07.827Z,4.00
2018-12-06T05:56:07.820Z,4.00
2018-12-06T05:57:07.801Z,4.00
2018-12-06T05:58:18.378Z,4.00
2018-12-06T05:59:07.787Z,4.00
2018-12-06T06:00:08.203Z,4.00
2018-12-06T06:01:07.763Z,8.00
2018-12-06T06:02:07.754Z,8.00
2018-12-06T06:03:07.753Z,8.00
2018-12-06T06:04:07.728Z,8.00
2018-12-06T06:05:07.724Z,8.00
2018-12-06T06:06:07.730Z,8.00
2018-12-06T06:07:07.701Z,8.00
2018-12-06T06:08:07.688Z,8.00
2018-12-06T06:09:07.674Z,8.00
2018-12-06T06:10:07.665Z,8.00
2018-12-06T06:11:07.667Z,8.00
2018-12-06T06:12:08.464Z,8.00
2018-12-06T06:13:07.640Z,8.00
2018-12-06T06:14:07.629Z,8.00
2018-12-06T06:15:07.614Z,8.00
2018-12-06T06:16:07.608Z,12.00
2018-12-06T06:17:07.604Z,12.00
2018-12-06T06:18:07.599Z,12.00
2018-12-06T06:19:07.578Z,8.00
2018-12-06T06:20:07.559Z,12.00
2018-12-06T06:21:07.557Z,8.00
2018-12-06T06:22:07.545Z,12.00
2018-12-06T06:23:07.536Z,12.00
2018-12-06T06:24:07.560Z,16.00
2018-12-06T06:25:07.512Z,12.00
2018-12-06T06:26:07.500Z,16.00
2018-12-06T06:27:07.491Z,16.00
2018-12-06T06:28:07.479Z,20.00
2018-12-06T06:29:20.975Z,20.00
2018-12-06T06:30:07.456Z,24.00
2018-12-06T06:31:07.455Z,24.00
2018-12-06T06:32:07.436Z,24.00
2018-12-06T06:33:08.782Z,28.00
2018-12-06T06:34:07.419Z,28.00
2018-12-06T06:35:07.446Z,28.00
2018-12-06T06:36:07.401Z,32.00
2018-12-06T06:37:07.393Z,36.00
2018-12-06T06:38:07.439Z,36.00
2018-12-06T06:39:07.365Z,40.00
2018-12-06T06:40:07.355Z,40.00
2018-12-06T06:41:08.149Z,44.00
2018-12-06T06:42:07.338Z,48.00
2018-12-06T06:43:07.321Z,48.00
2018-12-06T06:44:07.308Z,52.00
2018-12-06T06:45:07.306Z,56.00
2018-12-06T06:46:07.290Z,60.00
2018-12-06T06:47:07.350Z,64.00
2018-12-06T06:48:07.277Z,72.00
2018-12-06T06:49:13.535Z,76.00
2018-12-06T06:50:08.244Z,84.00
2018-12-06T06:51:07.241Z,84.00
2018-12-06T06:52:07.230Z,88.00
2018-12-06T06:53:07.266Z,96.00
2018-12-06T06:54:07.210Z,100.00
2018-12-06T06:55:07.198Z,104.00
2018-12-06T06:56:07.184Z,108.00
2018-12-06T06:57:07.173Z,116.00
2018-12-06T06:58:07.166Z,124.00
2018-12-06T06:59:07.208Z,132.00
2018-12-06T07:00:17.512Z,144.00
2018-12-06T07:01:07.140Z,156.00
2018-12-06T07:02:07.123Z,168.00
2018-12-06T07:03:07.113Z,168.00
2018-12-06T07:04:07.103Z,180.00
2018-12-06T07:05:07.742Z,196.00
2018-12-06T07:06:07.087Z,196.00
2018-12-06T07:07:07.070Z,212.00
2018-12-06T07:08:07.074Z,220.00
2018-12-06T07:09:07.048Z,228.00
2018-12-06T07:10:07.039Z,244.00
2018-12-06T07:11:07.075Z,252.00
2018-12-06T07:12:07.022Z,252.00
2018-12-06T07:13:07.009Z,252.00
2018-12-06T07:14:07.001Z,260.00
2018-12-06T07:15:07.077Z,264.00
2018-12-06T07:16:06.981Z,264.00
2018-12-06T07:17:07.008Z,272.00
2018-12-06T07:18:06.960Z,276.00
2018-12-06T07:19:06.947Z,284.00
2018-12-06T07:20:06.941Z,296.00
2018-12-06T07:21:06.924Z,304.00
2018-12-06T07:22:07.009Z,316.00
2018-12-06T07:23:06.971Z,336.00
2018-12-06T07:24:06.896Z,356.00
2018-12-06T07:25:06.890Z,372.00
2018-12-06T07:26:06.870Z,384.00
2018-12-06T07:27:06.861Z,416.00
2018-12-06T07:28:06.854Z,424.00
2018-12-06T07:29:07.226Z,440.00
2018-12-06T07:30:12.274Z,456.00
2018-12-06T07:32:21.854Z,512.00
2018-12-06T07:33:21.839Z,516.00
2018-12-06T07:34:21.856Z,528.00
2018-12-06T07:35:21.818Z,544.00
2018-12-06T07:36:21.811Z,556.00
2018-12-06T07:37:21.790Z,556.00
2018-12-06T07:38:21.784Z,592.00
2018-12-06T07:39:21.776Z,600.00
2018-12-06T07:40:21.818Z,568.00
2018-12-06T07:41:21.754Z,528.00
2018-12-06T07:42:21.741Z,484.00
2018-12-06T07:43:23.009Z,464.00
2018-12-06T07:44:21.718Z,476.00
2018-12-06T07:45:21.710Z,504.00
2018-12-06T07:46:21.769Z,496.00
2018-12-06T07:47:21.683Z,484.00
2018-12-06T07:48:21.678Z,500.00
2018-12-06T07:49:21.676Z,520.00
2018-12-06T07:50:21.652Z,512.00
2018-12-06T07:51:21.721Z,520.00
2018-12-06T07:52:21.653Z,528.00
2018-12-06T07:53:21.625Z,532.00
2018-12-06T07:54:21.618Z,532.00
2018-12-06T07:55:21.610Z,528.00
2018-12-06T07:56:21.592Z,508.00
2018-12-06T07:57:21.578Z,520.00
2018-12-06T07:58:21.613Z,536.00
2018-12-06T07:59:21.557Z,556.00
2018-12-06T08:00:21.549Z,532.00
2018-12-06T08:01:21.543Z,528.00
2018-12-06T08:02:32.207Z,544.00
2018-12-06T08:03:21.519Z,524.00
2018-12-06T08:04:21.878Z,520.00
2018-12-06T08:05:21.495Z,500.00
2018-12-06T08:06:21.482Z,492.00
2018-12-06T08:07:21.477Z,496.00
2018-12-06T08:08:21.460Z,500.00
2018-12-06T08:09:21.455Z,504.00
2018-12-06T08:10:21.486Z,508.00
2018-12-06T08:11:21.433Z,500.00
2018-12-06T08:12:21.429Z,492.00
2018-12-06T08:13:21.411Z,508.00
2018-12-06T08:14:21.397Z,504.00
2018-12-06T08:15:21.394Z,516.00
2018-12-06T08:16:21.420Z,544.00
2018-12-06T08:17:21.364Z,576.00
2018-12-06T08:18:21.358Z,596.00
2018-12-06T08:19:21.352Z,608.00
2018-12-06T08:20:21.335Z,628.00
2018-12-06T08:21:21.327Z,624.00
2018-12-06T08:22:21.357Z,600.00
2018-12-06T08:23:21.316Z,600.00
2018-12-06T08:24:21.292Z,600.00
2018-12-06T08:25:21.280Z,588.00
2018-12-06T08:26:21.273Z,604.00
2018-12-06T08:27:21.268Z,612.00
2018-12-06T08:28:21.335Z,628.00
2018-12-06T08:29:21.247Z,644.00
2018-12-06T08:30:21.237Z,672.00
2018-12-06T08:31:21.222Z,668.00
2018-12-06T08:32:21.211Z,664.00
2018-12-06T08:33:32.841Z,644.00
2018-12-06T08:34:21.187Z,632.00
2018-12-06T08:35:21.178Z,624.00
2018-12-06T08:36:21.168Z,644.00
2018-12-06T08:37:21.155Z,644.00
2018-12-06T08:38:21.154Z,640.00
2018-12-06T08:39:21.237Z,660.00
2018-12-06T08:40:21.123Z,640.00
2018-12-06T08:41:21.117Z,652.00
2018-12-06T08:42:21.102Z,692.00
2018-12-06T08:43:21.091Z,752.00
2018-12-06T08:44:21.815Z,820.00
2018-12-06T08:45:21.096Z,896.00
2018-12-06T08:46:21.063Z,996.00
2018-12-06T08:47:21.053Z,996.00
2018-12-06T08:48:21.035Z,1028.00
2018-12-06T08:49:21.025Z,1048.00
2018-12-06T08:50:21.278Z,1112.00
2018-12-06T08:51:21.050Z,1160.00
2018-12-06T08:52:21.004Z,1060.00
2018-12-06T08:53:20.987Z,1012.00
2018-12-06T08:54:20.974Z,968.00
2018-12-06T08:55:20.968Z,952.00
2018-12-06T08:56:20.951Z,1008.00
2018-12-06T08:57:20.981Z,1116.00
2018-12-06T08:58:20.930Z,1260.00
2018-12-06T08:59:20.922Z,1284.00
2018-12-06T09:00:20.906Z,1284.00
2018-12-06T09:01:20.906Z,1256.00
2018-12-06T09:02:20.892Z,1112.00
2018-12-06T09:03:21.349Z,1096.00
2018-12-06T09:04:32.106Z,1224.00
2018-12-06T09:05:20.853Z,1204.00
2018-12-06T09:06:20.846Z,1132.00
2018-12-06T09:07:20.839Z,1228.00
2018-12-06T09:08:20.828Z,1352.00
2018-12-06T09:09:20.857Z,1372.00
2018-12-06T09:10:20.804Z,1348.00
2018-12-06T09:11:20.794Z,1260.00
2018-12-06T09:12:20.790Z,1220.00
2018-12-06T09:13:20.771Z,1228.00
2018-12-06T09:14:20.763Z,1292.00
2018-12-06T09:15:20.866Z,1320.00
2018-12-06T09:16:20.735Z,1288.00
2018-12-06T09:17:20.728Z,1296.00
2018-12-06T09:18:20.717Z,1392.00
2018-12-06T09:19:20.703Z,1380.00
2018-12-06T09:20:20.699Z,1304.00
2018-12-06T09:21:20.730Z,1316.00
2018-12-06T09:22:20.678Z,1336.00
2018-12-06T09:23:20.667Z,1332.00
2018-12-06T09:24:20.651Z,1288.00
2018-12-06T09:25:21.214Z,1320.00
2018-12-06T09:26:20.631Z,1320.00
2018-12-06T09:27:20.655Z,1292.00
2018-12-06T09:28:20.612Z,1264.00
2018-12-06T09:29:20.606Z,1252.00
2018-12-06T09:30:20.587Z,1224.00
2018-12-06T09:31:20.581Z,1176.00
2018-12-06T09:32:20.570Z,1180.00
2018-12-06T09:33:22.114Z,1240.00
2018-12-06T09:34:20.542Z,1260.00
2018-12-06T09:35:30.861Z,1236.00
2018-12-06T09:36:20.525Z,1200.00
2018-12-06T09:37:20.515Z,1144.00
2018-12-06T09:38:20.504Z,1088.00
2018-12-06T09:39:20.533Z,1068.00
2018-12-06T09:40:20.484Z,1116.00
2018-12-06T09:41:20.471Z,1216.00
2018-12-06T09:42:20.467Z,1256.00
2018-12-06T09:43:20.458Z,1284.00
2018-12-06T09:44:20.437Z,1232.00
2018-12-06T09:45:20.882Z,1188.00
2018-12-06T09:46:20.414Z,1136.00
2018-12-06T09:47:20.406Z,1144.00
2018-12-06T09:48:20.405Z,1140.00
2018-12-06T09:49:20.391Z,1136.00
2018-12-06T09:50:20.418Z,1172.00
2018-12-06T09:51:20.875Z,1212.00
2018-12-06T09:52:20.355Z,1268.00
2018-12-06T09:53:20.342Z,1368.00
2018-12-06T09:54:20.336Z,1376.00
2018-12-06T09:55:20.323Z,1356.00
2018-12-06T09:56:20.311Z,1308.00
2018-12-06T09:57:20.338Z,1316.00
2018-12-06T09:58:20.288Z,1312.00
2018-12-06T09:59:20.278Z,1404.00
2018-12-06T10:00:20.272Z,1604.00
2018-12-06T10:01:20.259Z,1596.00
2018-12-06T10:02:20.247Z,1508.00
2018-12-06T10:03:20.274Z,1516.00
2018-12-06T10:04:20.224Z,1520.00
2018-12-06T10:05:20.221Z,1460.00
2018-12-06T10:06:30.766Z,1488.00
2018-12-06T10:07:20.194Z,1508.00
2018-12-06T10:08:20.184Z,1464.00
2018-12-06T10:09:20.218Z,1460.00
2018-12-06T10:10:20.164Z,1444.00
2018-12-06T10:11:20.159Z,1512.00
2018-12-06T10:12:20.145Z,1652.00
2018-12-06T10:13:20.131Z,1672.00
2018-12-06T10:14:20.124Z,1732.00
2018-12-06T10:15:20.891Z,1736.00
2018-12-06T10:16:20.096Z,1588.00
2018-12-06T10:17:20.092Z,1576.00
2018-12-06T10:18:20.082Z,1588.00
2018-12-06T10:19:20.067Z,1592.00
2018-12-06T10:20:27.893Z,1620.00
2018-12-06T10:21:20.049Z,1636.00
2018-12-06T10:22:20.033Z,1616.00
2018-12-06T10:23:20.028Z,1520.00
2018-12-06T10:24:20.018Z,1424.00
2018-12-06T10:25:20.002Z,1408.00
2018-12-06T10:26:20.007Z,1456.00
2018-12-06T10:27:19.988Z,1548.00
2018-12-06T10:28:19.970Z,1560.00
2018-12-06T10:29:19.962Z,1500.00
2018-12-06T10:30:19.949Z,1488.00
2018-12-06T10:31:19.939Z,1492.00
2018-12-06T10:32:19.973Z,1552.00
2018-12-06T10:33:19.925Z,1572.00
2018-12-06T10:34:19.904Z,1524.00
2018-12-06T10:35:19.899Z,1492.00
2018-12-06T10:36:19.882Z,1456.00
2018-12-06T10:37:19.870Z,1412.00
2018-12-06T10:38:19.908Z,1396.00
2018-12-06T10:39:19.849Z,1384.00
2018-12-06T10:40:19.840Z,1368.00
2018-12-06T10:41:19.833Z,1452.00
2018-12-06T10:42:19.819Z,1588.00
2018-12-06T10:43:19.810Z,1676.00
2018-12-06T10:44:19.841Z,1644.00
2018-12-06T10:45:19.787Z,1640.00
2018-12-06T10:46:19.783Z,1592.00
2018-12-06T10:47:19.763Z,1588.00
2018-12-06T10:48:19.752Z,1676.00
2018-12-06T10:49:19.750Z,1908.00
2018-12-06T10:50:19.787Z,2400.00
2018-12-06T10:51:30.883Z,2900.00
2018-12-06T10:52:19.717Z,2832.00
2018-12-06T10:53:19.704Z,2760.00
2018-12-06T10:54:19.693Z,2780.00
2018-12-06T10:55:19.682Z,2704.00
2018-12-06T10:56:19.756Z,2456.00
2018-12-06T10:57:19.657Z,2340.00
2018-12-06T10:58:19.652Z,2288.00
2018-12-06T10:59:19.644Z,2348.00
2018-12-06T11:00:19.628Z,2300.00
2018-12-06T11:01:19.614Z,2288.00
2018-12-06T11:02:19.638Z,2420.00
2018-12-06T11:03:19.600Z,2604.00
2018-12-06T11:04:19.591Z,2656.00
2018-12-06T11:05:19.578Z,2512.00
2018-12-06T11:06:19.559Z,2408.00
2018-12-06T11:07:19.555Z,2388.00
2018-12-06T11:08:19.556Z,2132.00
2018-12-06T11:09:19.529Z,1988.00
2018-12-06T11:10:19.541Z,2036.00
2018-12-06T11:11:19.508Z,2088.00
2018-12-06T11:12:19.502Z,2132.00
2018-12-06T11:13:19.486Z,2192.00
2018-12-06T11:14:19.493Z,2200.00
2018-12-06T11:15:19.471Z,2156.00
2018-12-06T11:16:19.465Z,1976.00
2018-12-06T11:17:19.444Z,1788.00
2018-12-06T11:18:19.436Z,1816.00
2018-12-06T11:19:19.423Z,1848.00
2018-12-06T11:20:19.426Z,1912.00
2018-12-06T11:21:19.406Z,1896.00
2018-12-06T11:22:31.098Z,1972.00
2018-12-06T11:23:19.377Z,1864.00
2018-12-06T11:24:19.366Z,1732.00
2018-12-06T11:25:19.363Z,1656.00
2018-12-06T11:26:19.924Z,1560.00
2018-12-06T11:27:19.342Z,1492.00
2018-12-06T11:28:19.326Z,1424.00
2018-12-06T11:29:19.318Z,1348.00
2018-12-06T11:30:19.303Z,1276.00
2018-12-06T11:31:19.301Z,1284.00
2018-12-06T11:32:19.417Z,1272.00
2018-12-06T11:33:19.279Z,1208.00
2018-12-06T11:34:19.271Z,1176.00
2018-12-06T11:35:19.252Z,1220.00
2018-12-06T11:36:19.243Z,1236.00
2018-12-06T11:37:19.232Z,1200.00
2018-12-06T11:38:19.258Z,1140.00
2018-12-06T11:39:19.210Z,1072.00
2018-12-06T11:40:19.203Z,1112.00
2018-12-06T11:41:19.186Z,1124.00
2018-12-06T11:42:19.181Z,1116.00
2018-12-06T11:43:19.164Z,1132.00
2018-12-06T11:44:19.198Z,1164.00
2018-12-06T11:45:19.150Z,1220.00
2018-12-06T11:46:19.137Z,1268.00
2018-12-06T11:47:19.130Z,1280.00
2018-12-06T11:48:26.669Z,1260.00
2018-12-06T11:49:20.416Z,1244.00
2018-12-06T11:50:19.091Z,1224.00
2018-12-06T11:51:19.085Z,1200.00
2018-12-06T11:52:19.082Z,1168.00
2018-12-06T11:53:29.843Z,1096.00
2018-12-06T11:54:19.049Z,1040.00
2018-12-06T11:55:20.055Z,1000.00
2018-12-06T11:56:19.030Z,956.00
2018-12-06T11:57:19.028Z,940.00
2018-12-06T11:58:19.006Z,924.00
2018-12-06T11:59:18.995Z,912.00
2018-12-06T12:00:18.985Z,924.00
2018-12-06T12:01:19.010Z,940.00
2018-12-06T12:02:19.054Z,928.00
2018-12-06T12:03:18.958Z,896.00
2018-12-06T12:04:18.941Z,892.00
2018-12-06T12:05:18.933Z,876.00
2018-12-06T12:06:18.928Z,832.00
2018-12-06T12:07:18.932Z,804.00
2018-12-06T12:08:18.901Z,784.00
2018-12-06T12:09:18.887Z,764.00
2018-12-06T12:10:18.878Z,760.00
2018-12-06T12:11:18.864Z,760.00
2018-12-06T12:12:18.861Z,748.00
2018-12-06T12:13:18.881Z,740.00
2018-12-06T12:14:18.832Z,748.00
2018-12-06T12:15:18.828Z,772.00
2018-12-06T12:16:18.813Z,768.00
2018-12-06T12:17:18.800Z,740.00
2018-12-06T12:18:18.806Z,704.00
2018-12-06T12:19:19.456Z,680.00
2018-12-06T12:20:18.775Z,672.00
2018-12-06T12:21:18.762Z,676.00
2018-12-06T12:22:18.753Z,684.00
2018-12-06T12:23:18.741Z,652.00
2018-12-06T12:24:28.973Z,604.00
2018-12-06T12:25:18.763Z,572.00
2018-12-06T12:26:18.709Z,568.00
2018-12-06T12:27:18.703Z,556.00
2018-12-06T12:28:18.686Z,516.00
2018-12-06T12:29:18.677Z,472.00
2018-12-06T12:30:18.727Z,452.00
2018-12-06T12:31:18.657Z,436.00
2018-12-06T12:32:18.653Z,424.00
2018-12-06T12:33:18.634Z,428.00
2018-12-06T12:34:18.620Z,412.00
2018-12-06T12:35:18.902Z,388.00
2018-12-06T12:36:18.621Z,360.00
2018-12-06T12:37:18.594Z,344.00
2018-12-06T12:38:18.583Z,336.00
2018-12-06T12:39:18.579Z,340.00
2018-12-06T12:40:18.555Z,328.00
2018-12-06T12:41:18.547Z,312.00
2018-12-06T12:42:18.571Z,296.00
2018-12-06T12:43:18.532Z,292.00
2018-12-06T12:44:18.514Z,292.00
2018-12-06T12:45:18.508Z,276.00
2018-12-06T12:46:18.497Z,252.00
2018-12-06T12:47:18.485Z,240.00
2018-12-06T12:48:18.512Z,232.00